Relax — ILWX2 — position and weather

sailwx.info

Track history (hours):
 
Tides and Currents Weather Stations Pressure Air Temp Water Temp Dewpoint Dewpoint Depression Visibility Wind Speed Wind Dir Waves Ship Positions

Relax

Last reported at 2016-Jul-29 08:27 UTC. Time now 2016-Jul-30 05:23 UTC.
Position N 40°34' E 014°21'.

MMSI: 247277800.

Date/timePositionNaut miles runAvg speedWind from/ knotsBaromVisibWave heightAir tempDewpointWater temp
2016-Jul-29 08:27N 40°34' E 014°21'  
2016-Jul-24 15:19N 40°35' E 014°15'1519.4
2016-Jul-24 14:33N 40°44' E 013°59'1 0.6
2016-Jul-24 13:33N 40°43' E 013°59'1 0.5
2016-Jul-24 11:33N 40°42' E 013°59'0 0.0
2016-Jul-24 10:33N 40°42' E 013°59'1 0.8
2016-Jul-24 09:29N 40°43' E 013°58'11 8.1
2016-Jul-24 08:07N 40°38' E 014°11'711.7
2016-Jul-24 07:33N 40°34' E 014°18'3 0.2
2016-Jul-23 15:33N 40°33' E 014°15'1414.3
2016-Jul-23 14:33N 40°43' E 014°00'1 1.4
2016-Jul-23 13:31N 40°42' E 013°59'0 0.0
2016-Jul-23 12:33N 40°42' E 013°59'0 0.0
2016-Jul-23 11:33N 40°42' E 013°59'0 0.0
2016-Jul-23 10:32N 40°42' E 013°59'1 0.7
2016-Jul-23 09:32N 40°43' E 013°58'5 4.6
2016-Jul-23 08:33N 40°41' E 014°04'19 1.1
2016-Jul-22 16:07N 40°35' E 014°27'915.9
2016-Jul-22 15:32N 40°33' E 014°15'1515.1
2016-Jul-22 14:34N 40°43' E 014°00'1 1.4
2016-Jul-22 13:30N 40°42' E 013°59'0 0.0
2016-Jul-22 12:30N 40°42' E 013°59'0 0.0
2016-Jul-22 11:30N 40°42' E 013°59'0 0.0
2016-Jul-22 10:30N 40°42' E 013°59'0 0.0
2016-Jul-22 09:30N 40°42' E 013°59'4 3.9
2016-Jul-22 08:33N 40°41' E 014°04'19 1.2
2016-Jul-21 16:29N 40°38' E 014°29'1212.0
2016-Jul-21 15:30N 40°33' E 014°15'1616.5
2016-Jul-21 14:33N 40°44' E 013°59'2 1.7
2016-Jul-21 13:32N 40°42' E 013°59'0 0.0
2016-Jul-21 12:32N 40°42' E 013°59'0 0.0
2016-Jul-21 11:32N 40°42' E 013°59'0 0.0
2016-Jul-21 10:32N 40°42' E 013°59'0 0.0
2016-Jul-21 09:32N 40°42' E 013°59'7 6.8
2016-Jul-21 08:33N 40°40' E 014°07'8 0.5
2016-Jul-20 15:24N 40°33' E 014°15'1518.2
2016-Jul-20 14:33N 40°44' E 013°59'1 1.2
2016-Jul-20 13:30N 40°42' E 013°59'0 0.0
2016-Jul-20 12:30N 40°42' E 013°59'0 0.0
2016-Jul-20 11:30N 40°42' E 013°59'0 0.0
2016-Jul-20 10:30N 40°42' E 013°59'0 0.0
2016-Jul-20 09:30N 40°42' E 013°59'6 6.8
2016-Jul-20 08:34N 40°40' E 014°07'9 0.5
2016-Jul-19 14:33N 40°34' E 014°16'1 0.2
2016-Jul-19 09:29N 40°33' E 014°15'  
Track history (hours):
 
Tides and Currents Weather Stations Pressure Air Temp Water Temp Dewpoint Dewpoint Depression Visibility Wind Speed Wind Dir Waves Ship Positions

Relax

Last reported at 2016-Jul-29 08:27 UTC. Time now 2016-Jul-30 05:23 UTC.
Position N 40°34' E 014°21'.

MMSI: 247277800.

Date/timePositionNaut miles runAvg speedWind from/ knotsBaromVisibWave heightAir tempDewpointWater temp
2016-Jul-29 08:27N 40°34' E 014°21'  
2016-Jul-24 15:19N 40°35' E 014°15'1519.4
2016-Jul-24 14:33N 40°44' E 013°59'1 0.6
2016-Jul-24 13:33N 40°43' E 013°59'1 0.5
2016-Jul-24 11:33N 40°42' E 013°59'0 0.0
2016-Jul-24 10:33N 40°42' E 013°59'1 0.8
2016-Jul-24 09:29N 40°43' E 013°58'11 8.1
2016-Jul-24 08:07N 40°38' E 014°11'711.7
2016-Jul-24 07:33N 40°34' E 014°18'3 0.2
2016-Jul-23 15:33N 40°33' E 014°15'1414.3
2016-Jul-23 14:33N 40°43' E 014°00'1 1.4
2016-Jul-23 13:31N 40°42' E 013°59'0 0.0
2016-Jul-23 12:33N 40°42' E 013°59'0 0.0
2016-Jul-23 11:33N 40°42' E 013°59'0 0.0
2016-Jul-23 10:32N 40°42' E 013°59'1 0.7
2016-Jul-23 09:32N 40°43' E 013°58'5 4.6
2016-Jul-23 08:33N 40°41' E 014°04'19 1.1
2016-Jul-22 16:07N 40°35' E 014°27'915.9
2016-Jul-22 15:32N 40°33' E 014°15'1515.1
2016-Jul-22 14:34N 40°43' E 014°00'1 1.4
2016-Jul-22 13:30N 40°42' E 013°59'0 0.0
2016-Jul-22 12:30N 40°42' E 013°59'0 0.0
2016-Jul-22 11:30N 40°42' E 013°59'0 0.0
2016-Jul-22 10:30N 40°42' E 013°59'0 0.0
2016-Jul-22 09:30N 40°42' E 013°59'4 3.9
2016-Jul-22 08:33N 40°41' E 014°04'19 1.2
2016-Jul-21 16:29N 40°38' E 014°29'1212.0
2016-Jul-21 15:30N 40°33' E 014°15'1616.5
2016-Jul-21 14:33N 40°44' E 013°59'2 1.7
2016-Jul-21 13:32N 40°42' E 013°59'0 0.0
2016-Jul-21 12:32N 40°42' E 013°59'0 0.0
2016-Jul-21 11:32N 40°42' E 013°59'0 0.0
2016-Jul-21 10:32N 40°42' E 013°59'0 0.0
2016-Jul-21 09:32N 40°42' E 013°59'7 6.8
2016-Jul-21 08:33N 40°40' E 014°07'8 0.5
2016-Jul-20 15:24N 40°33' E 014°15'1518.2
2016-Jul-20 14:33N 40°44' E 013°59'1 1.2
2016-Jul-20 13:30N 40°42' E 013°59'0 0.0
2016-Jul-20 12:30N 40°42' E 013°59'0 0.0
2016-Jul-20 11:30N 40°42' E 013°59'0 0.0
2016-Jul-20 10:30N 40°42' E 013°59'0 0.0
2016-Jul-20 09:30N 40°42' E 013°59'6 6.8
2016-Jul-20 08:34N 40°40' E 014°07'9 0.5
2016-Jul-19 14:33N 40°34' E 014°16'1 0.2
2016-Jul-19 09:29N 40°33' E 014°15'  

Dump ship's entire track history